Terminal Aerodrome Forecast
Issued by NWS

Home | Current Version | Previous Version | Text Only | Print | Product List | Glossary Off
Versions: 1 2 3 4 5 6 7 8 9 10 11 12 13 14 15

000
FTUS43 KBIS 021120
TAFJMS
TAF
KJMS 021120Z 0212/0312 16005KT P6SM OVC150
     FM021300 17004KT P6SM VCTS SCT060CB BKN100
     FM021500 19005KT P6SM SCT080
     FM022100 32007KT P6SM VCTS BKN050CB
     FM030300 35004KT P6SM SKC=

USA.gov is the U.S. government's official web portal to all federal, state and local government web resources and services.